createdAt,value
2022-07-26T00:00:32.937Z,99230.39
2022-07-26T00:01:35.739Z,99229.31
2022-07-26T00:02:38.762Z,99226.31
2022-07-26T00:03:43.337Z,99223.59
2022-07-26T00:04:46.023Z,99221.43
2022-07-26T00:05:48.741Z,99217.63
2022-07-26T00:06:51.652Z,99225.78
2022-07-26T00:07:54.700Z,99225.78
2022-07-26T00:08:57.496Z,99217.91
2022-07-26T00:10:00.244Z,99216.52
2022-07-26T00:11:07.025Z,99218.72
2022-07-26T00:12:08.548Z,99220.36
2022-07-26T00:13:11.343Z,99224.19
2022-07-26T00:14:14.142Z,99224.47
2022-07-26T00:15:16.871Z,99221.77
2022-07-26T00:16:20.660Z,99223.97
2022-07-26T00:17:23.678Z,99233.22
2022-07-26T00:18:26.433Z,99222.66
2022-07-26T00:19:29.023Z,99225.11
2022-07-26T00:20:32.579Z,99219.98
2022-07-26T00:21:36.649Z,99222.13
2022-07-26T00:22:41.274Z,99222.41
2022-07-26T00:23:44.196Z,99217.53
2022-07-26T00:24:46.983Z,99223.77
2022-07-26T00:25:49.658Z,99221.30
2022-07-26T00:26:52.452Z,99214.00
2022-07-26T00:27:55.350Z,99218.08
2022-07-26T00:28:58.184Z,99213.45
2022-07-26T00:31:11.816Z,99212.88
2022-07-26T00:32:14.588Z,99211.81
2022-07-26T00:33:17.168Z,99216.97
2022-07-26T00:34:19.853Z,99214.25
2022-07-26T00:35:22.577Z,99216.70
2022-07-26T00:36:25.771Z,99214.78
2022-07-26T00:38:39.036Z,99209.86
2022-07-26T00:39:41.625Z,99217.47
2022-07-26T00:40:44.521Z,99211.23
2022-07-26T00:41:47.615Z,99222.10
2022-07-26T00:42:50.818Z,99211.77
2022-07-26T00:43:57.868Z,99213.12
2022-07-26T00:45:00.481Z,99211.21
2022-07-26T00:46:03.531Z,99215.81
2022-07-26T00:47:06.407Z,99209.05
2022-07-26T00:48:09.118Z,99207.70
2022-07-26T00:49:12.616Z,99209.61
2022-07-26T00:50:18.730Z,99211.48
2022-07-26T00:51:21.785Z,99204.45
2022-07-26T00:52:24.880Z,99209.33
2022-07-26T00:53:27.577Z,99207.45
2022-07-26T00:54:30.199Z,99215.59
2022-07-26T00:55:32.980Z,99204.73
2022-07-26T00:56:35.911Z,99204.45
2022-07-26T00:57:38.813Z,99202.54
2022-07-26T00:58:42.625Z,99206.89
2022-07-26T00:59:47.261Z,99198.19
2022-07-26T01:00:50.102Z,99198.19
2022-07-26T01:03:14.441Z,99197.63
2022-07-26T01:04:17.009Z,99203.90
2022-07-26T01:05:20.980Z,99203.06
2022-07-26T01:06:27.366Z,99203.06
2022-07-26T01:07:29.095Z,99201.45
2022-07-26T01:08:31.866Z,99201.45
2022-07-26T01:09:34.550Z,99192.75
2022-07-26T01:10:37.545Z,99198.19
2022-07-26T01:11:41.560Z,99197.11
2022-07-26T01:12:44.677Z,99196.58
2022-07-26T01:15:00.384Z,99194.92
2022-07-26T01:16:05.340Z,99197.14
2022-07-26T01:17:08.002Z,99198.49
2022-07-26T01:18:10.703Z,99194.97
2022-07-26T01:19:13.603Z,99198.80
2022-07-26T01:20:18.139Z,99201.78
2022-07-26T01:21:21.124Z,99201.51
2022-07-26T01:22:23.928Z,99199.31
2022-07-26T01:23:26.602Z,99191.70
2022-07-26T01:24:29.275Z,99199.84
2022-07-26T01:25:42.397Z,99204.75
2022-07-26T01:26:40.996Z,99200.40
2022-07-26T01:27:43.587Z,99210.45
2022-07-26T01:28:46.221Z,99203.39
2022-07-26T01:29:50.898Z,99206.38
2022-07-26T01:30:56.608Z,99202.06
2022-07-26T01:31:59.343Z,99209.37
2022-07-26T01:33:02.020Z,99206.13
2022-07-26T01:34:06.788Z,99206.93
2022-07-26T01:35:10.085Z,99210.72
2022-07-26T01:36:14.582Z,99207.48
2022-07-26T01:37:17.166Z,99202.05
2022-07-26T01:38:19.756Z,99211.00
2022-07-26T01:39:22.816Z,99202.33
2022-07-26T01:40:27.317Z,99208.58
2022-07-26T01:41:37.261Z,99205.06
2022-07-26T01:42:34.670Z,99203.97
2022-07-26T01:43:37.569Z,99209.41
2022-07-26T01:44:40.245Z,99204.80
2022-07-26T01:45:43.086Z,99202.63
2022-07-26T01:46:46.161Z,99206.42
2022-07-26T01:47:48.727Z,99202.38
2022-07-26T01:48:51.485Z,99200.21
2022-07-26T01:49:54.167Z,99202.36
2022-07-26T01:50:56.952Z,99209.17
2022-07-26T01:51:59.532Z,99200.47
2022-07-26T01:53:02.207Z,99201.55
2022-07-26T01:54:07.162Z,99209.45
2022-07-26T01:55:10.204Z,99203.19
2022-07-26T01:56:13.623Z,99208.34
2022-07-26T01:58:26.991Z,99199.11
2022-07-26T01:59:29.654Z,99196.94
2022-07-26T02:00:33.026Z,99192.34
2022-07-26T02:01:37.984Z,99194.50
2022-07-26T02:02:40.669Z,99203.20
2022-07-26T02:03:43.506Z,99191.23
2022-07-26T02:04:46.075Z,99201.29
2022-07-26T02:05:48.878Z,99198.03
2022-07-26T02:06:51.710Z,99197.23
2022-07-26T02:07:54.718Z,99204.27
2022-07-26T02:08:58.724Z,99195.59
2022-07-26T02:10:01.547Z,99195.31
2022-07-26T02:11:05.154Z,99193.68
2022-07-26T02:12:08.193Z,99195.59
2022-07-26T02:14:26.057Z,99191.25
2022-07-26T02:15:29.034Z,99199.39
2022-07-26T02:16:31.925Z,99197.23
2022-07-26T02:17:34.560Z,99191.23
2022-07-26T02:18:37.358Z,99190.42
2022-07-26T02:19:39.946Z,99195.02
2022-07-26T02:20:42.741Z,99191.50
2022-07-26T02:21:46.759Z,99192.30
2022-07-26T02:22:49.657Z,99196.92
2022-07-26T02:23:52.553Z,99192.58
2022-07-26T02:24:55.237Z,99192.58
2022-07-26T02:25:57.929Z,99195.55
2022-07-26T02:27:01.219Z,99193.39
2022-07-26T02:28:04.740Z,99191.78
2022-07-26T02:29:07.344Z,99192.86
2022-07-26T02:30:12.098Z,99189.61
2022-07-26T02:31:15.407Z,99190.14
2022-07-26T02:32:18.592Z,99195.83
2022-07-26T02:33:21.281Z,99185.81
2022-07-26T02:34:23.945Z,99192.30
2022-07-26T02:35:26.622Z,99188.51
2022-07-26T02:36:29.402Z,99189.91
2022-07-26T02:37:31.981Z,99189.36
2022-07-26T02:38:36.565Z,99189.36
2022-07-26T02:39:39.240Z,99193.95
2022-07-26T02:40:42.237Z,99199.94
2022-07-26T02:41:44.910Z,99194.52
2022-07-26T02:42:47.706Z,99198.03
2022-07-26T02:43:50.274Z,99196.13
2022-07-26T02:44:52.874Z,99192.60
2022-07-26T02:46:01.749Z,99197.23
2022-07-26T02:47:00.328Z,99200.22
2022-07-26T02:48:03.395Z,99201.02
2022-07-26T02:49:06.107Z,99194.52
2022-07-26T02:50:09.709Z,99193.41
2022-07-26T02:51:12.396Z,99199.38
2022-07-26T02:52:15.070Z,99194.23
2022-07-26T02:53:17.661Z,99191.78
2022-07-26T02:54:20.349Z,99193.94
2022-07-26T02:55:24.601Z,99194.48
2022-07-26T02:56:27.450Z,99193.41
2022-07-26T02:57:30.023Z,99197.47
2022-07-26T02:58:34.710Z,99198.00
2022-07-26T02:59:37.383Z,99199.91
2022-07-26T03:00:40.387Z,99199.11
2022-07-26T03:01:43.228Z,99196.92
2022-07-26T03:02:46.644Z,99201.27
2022-07-26T03:03:51.032Z,99199.36
2022-07-26T03:04:54.026Z,99189.31
2022-07-26T03:05:56.776Z,99197.45
2022-07-26T03:06:59.674Z,99200.76
2022-07-26T03:08:02.827Z,99190.16
2022-07-26T03:09:05.513Z,99195.05
2022-07-26T03:10:08.839Z,99196.66
2022-07-26T03:11:12.304Z,99201.81
2022-07-26T03:12:15.163Z,99198.02
2022-07-26T03:13:17.863Z,99195.31
2022-07-26T03:14:20.449Z,99194.23
2022-07-26T03:15:23.957Z,99192.85
2022-07-26T03:16:29.662Z,99191.50
2022-07-26T03:17:31.237Z,99187.71
2022-07-26T03:18:35.244Z,99192.59
2022-07-26T03:19:38.046Z,99189.31
2022-07-26T03:20:40.837Z,99189.31
2022-07-26T03:21:43.525Z,99188.52
2022-07-26T03:22:46.215Z,99185.25
2022-07-26T03:23:49.047Z,99181.45
2022-07-26T03:24:51.631Z,99194.48
2022-07-26T03:25:54.319Z,99189.58
2022-07-26T03:26:57.173Z,99193.37
2022-07-26T03:27:59.841Z,99192.28
2022-07-26T03:29:02.501Z,99194.44
2022-07-26T03:30:06.252Z,99196.61
2022-07-26T03:31:09.052Z,99197.41
2022-07-26T03:32:11.749Z,99191.17
2022-07-26T03:33:14.460Z,99193.09
2022-07-26T03:34:17.635Z,99191.73
2022-07-26T03:35:20.437Z,99188.73
2022-07-26T03:36:23.432Z,99186.04
2022-07-26T03:37:25.997Z,99198.52
2022-07-26T03:38:30.625Z,99193.64
2022-07-26T03:39:33.200Z,99189.60
2022-07-26T03:40:35.954Z,99187.44
2022-07-26T03:41:40.556Z,99189.59
2022-07-26T03:43:55.098Z,99184.72
2022-07-26T03:44:57.888Z,99194.22
2022-07-26T03:46:00.795Z,99192.89
2022-07-26T03:47:03.890Z,99192.33
2022-07-26T03:48:06.691Z,99186.63
2022-07-26T03:49:14.575Z,99191.78
2022-07-26T03:50:16.002Z,99193.95
2022-07-26T03:51:18.814Z,99191.25
2022-07-26T03:52:21.386Z,99188.52
2022-07-26T03:53:24.079Z,99196.66
2022-07-26T03:54:27.367Z,99190.66
2022-07-26T03:55:29.946Z,99190.39
2022-07-26T03:56:32.943Z,99191.45
2022-07-26T03:57:35.747Z,99188.73
2022-07-26T03:58:38.458Z,99198.74
2022-07-26T03:59:41.258Z,99196.03
2022-07-26T04:00:45.231Z,99204.67
2022-07-26T04:01:47.976Z,99195.41
2022-07-26T04:02:50.958Z,99197.58
2022-07-26T04:03:53.712Z,99197.02
2022-07-26T04:04:56.811Z,99194.30
2022-07-26T04:05:59.506Z,99198.09
2022-07-26T04:07:03.148Z,99200.02
2022-07-26T04:08:06.498Z,99203.28
2022-07-26T04:09:09.180Z,99204.12
2022-07-26T04:10:12.381Z,99209.30
2022-07-26T04:11:15.051Z,99208.78
2022-07-26T04:12:17.652Z,99205.78
2022-07-26T04:13:20.622Z,99208.22
2022-07-26T04:14:23.292Z,99215.81
2022-07-26T04:15:25.874Z,99213.10
2022-07-26T04:16:28.731Z,99215.27
2022-07-26T04:17:40.297Z,99216.06
2022-07-26T04:18:43.139Z,99219.30
2022-07-26T04:19:45.901Z,99217.42
2022-07-26T04:20:48.877Z,99214.15
2022-07-26T04:21:51.557Z,99211.98
2022-07-26T04:22:54.236Z,99212.80
2022-07-26T04:23:57.417Z,99204.64
2022-07-26T04:25:00.104Z,99209.00
2022-07-26T04:26:03.252Z,99210.63
2022-07-26T04:27:06.018Z,99212.23
2022-07-26T04:28:09.703Z,99213.59
2022-07-26T04:29:12.447Z,99217.39
2022-07-26T04:30:15.943Z,99214.40
2022-07-26T04:31:18.829Z,99216.28
2022-07-26T04:32:21.579Z,99218.44
2022-07-26T04:33:24.665Z,99218.72
2022-07-26T04:35:37.885Z,99215.13
2022-07-26T04:36:40.724Z,99216.25
2022-07-26T04:37:44.127Z,99209.77
2022-07-26T04:38:46.922Z,99218.72
2022-07-26T04:39:54.732Z,99217.63
2022-07-26T04:40:54.511Z,99217.08
2022-07-26T04:41:57.326Z,99218.95
2022-07-26T04:43:00.922Z,99217.08
2022-07-26T04:44:04.388Z,99219.52
2022-07-26T04:45:08.789Z,99219.23
2022-07-26T04:46:12.168Z,99220.07
2022-07-26T04:47:14.900Z,99225.23
2022-07-26T04:48:17.572Z,99232.82
2022-07-26T04:49:20.323Z,99234.95
2022-07-26T04:50:23.514Z,99238.18
2022-07-26T04:51:26.079Z,99235.70
2022-07-26T04:52:28.691Z,99233.81
2022-07-26T04:53:31.374Z,99234.91
2022-07-26T04:54:33.968Z,99235.70
2022-07-26T04:55:37.466Z,99230.54
2022-07-26T04:56:40.491Z,99233.22
2022-07-26T04:57:43.078Z,99230.73
2022-07-26T04:58:45.973Z,99233.97
2022-07-26T05:00:03.405Z,99229.03
2022-07-26T05:01:10.303Z,99234.14
2022-07-26T05:01:58.052Z,99236.58
2022-07-26T05:03:01.183Z,99227.57
2022-07-26T05:05:16.240Z,99230.16
2022-07-26T05:06:20.162Z,99235.38
2022-07-26T05:07:22.754Z,99238.63
2022-07-26T05:08:25.387Z,99234.25
2022-07-26T05:09:29.172Z,99235.59
2022-07-26T05:10:34.158Z,99233.96
2022-07-26T05:11:36.766Z,99230.72
2022-07-26T05:12:39.487Z,99236.69
2022-07-26T05:13:42.151Z,99236.92
2022-07-26T05:14:44.923Z,99232.02
2022-07-26T05:15:48.225Z,99229.53
2022-07-26T05:16:53.668Z,99235.55
2022-07-26T05:18:06.678Z,99236.59
2022-07-26T05:19:09.461Z,99236.02
2022-07-26T05:20:14.252Z,99237.36
2022-07-26T05:21:17.954Z,99226.70
2022-07-26T05:22:20.850Z,99232.92
2022-07-26T05:23:23.564Z,99236.42
2022-07-26T05:24:26.325Z,99222.52
2022-07-26T05:25:28.929Z,99233.70
2022-07-26T05:26:31.926Z,99230.44
2022-07-26T05:27:34.617Z,99229.92
2022-07-26T05:28:40.355Z,99238.09
2022-07-26T05:29:43.552Z,99226.63
2022-07-26T05:30:47.970Z,99234.98
2022-07-26T05:31:50.709Z,99230.02
2022-07-26T05:32:53.381Z,99228.04
2022-07-26T05:33:56.094Z,99230.77
2022-07-26T05:34:58.755Z,99231.82
2022-07-26T05:36:01.342Z,99230.73
2022-07-26T05:37:04.012Z,99223.65
2022-07-26T05:38:06.686Z,99229.03
2022-07-26T05:39:12.876Z,99218.90
2022-07-26T05:40:14.550Z,99221.27
2022-07-26T05:41:17.249Z,99212.25
2022-07-26T05:42:20.046Z,99223.08
2022-07-26T05:43:22.741Z,99222.72
2022-07-26T05:44:25.334Z,99224.36
2022-07-26T05:45:29.472Z,99224.28
2022-07-26T05:46:32.517Z,99215.80
2022-07-26T05:47:35.267Z,99217.86
2022-07-26T05:49:50.406Z,99209.72
2022-07-26T05:50:53.407Z,99217.45
2022-07-26T05:52:01.074Z,99215.23
2022-07-26T05:53:00.596Z,99216.56
2022-07-26T05:54:03.558Z,99229.40
2022-07-26T05:55:07.430Z,99217.37
2022-07-26T05:56:10.259Z,99221.14
2022-07-26T05:57:13.066Z,99216.73
2022-07-26T05:58:15.746Z,99220.47
2022-07-26T05:59:18.548Z,99216.86
2022-07-26T06:00:21.523Z,99210.52
2022-07-26T06:01:24.210Z,99215.41
2022-07-26T06:02:27.225Z,99217.02
2022-07-26T06:03:30.597Z,99215.92
2022-07-26T06:04:33.590Z,99216.13
2022-07-26T06:05:36.300Z,99217.97
2022-07-26T06:06:39.187Z,99216.27
2022-07-26T06:07:41.767Z,99209.72
2022-07-26T06:08:44.462Z,99215.98
2022-07-26T06:09:47.152Z,99211.86
2022-07-26T06:10:50.334Z,99220.04
2022-07-26T06:11:53.018Z,99209.42
2022-07-26T06:12:55.739Z,99216.19
2022-07-26T06:13:58.404Z,99202.25
2022-07-26T06:15:01.401Z,99218.27
2022-07-26T06:16:05.139Z,99212.20
2022-07-26T06:17:07.865Z,99210.22
2022-07-26T06:18:10.629Z,99210.45
2022-07-26T06:19:13.369Z,99204.19
2022-07-26T06:20:16.361Z,99208.52
2022-07-26T06:21:19.130Z,99206.63
2022-07-26T06:22:22.004Z,99203.30
2022-07-26T06:23:31.893Z,99201.56
2022-07-26T06:24:29.468Z,99197.14
2022-07-26T06:25:32.183Z,99192.41
2022-07-26T06:26:34.966Z,99204.56
2022-07-26T06:27:37.637Z,99200.10
2022-07-26T06:28:40.427Z,99201.23
2022-07-26T06:29:43.009Z,99195.17
2022-07-26T06:30:45.788Z,99197.80
2022-07-26T06:31:48.545Z,99203.79
2022-07-26T06:32:51.327Z,99199.13
2022-07-26T06:33:53.999Z,99198.22
2022-07-26T06:36:13.690Z,99194.90
2022-07-26T06:37:16.299Z,99195.91
2022-07-26T06:38:19.398Z,99196.61
2022-07-26T06:39:21.974Z,99198.04
2022-07-26T06:40:26.106Z,99186.89
2022-07-26T06:41:29.205Z,99191.55
2022-07-26T06:42:32.194Z,99189.12
2022-07-26T06:43:36.152Z,99185.89
2022-07-26T06:44:40.972Z,99185.29
2022-07-26T06:45:43.943Z,99188.52
2022-07-26T06:46:49.238Z,99184.87
2022-07-26T06:47:52.069Z,99184.27
2022-07-26T06:48:56.934Z,99194.90
2022-07-26T06:50:01.431Z,99187.42
2022-07-26T06:51:04.656Z,99179.42
2022-07-26T06:52:07.669Z,99178.50
2022-07-26T06:53:10.383Z,99184.11
2022-07-26T06:54:14.305Z,99187.34
2022-07-26T06:55:17.653Z,99187.56
2022-07-26T06:56:21.265Z,99183.91
2022-07-26T06:57:25.965Z,99182.47
2022-07-26T06:58:28.920Z,99178.63
2022-07-26T07:00:42.348Z,99179.63
2022-07-26T07:01:59.645Z,99188.75
2022-07-26T07:02:50.764Z,99185.70
2022-07-26T07:03:53.487Z,99183.38
2022-07-26T07:04:56.208Z,99182.76
2022-07-26T07:05:58.832Z,99183.25
2022-07-26T07:07:04.493Z,99179.10
2022-07-26T07:08:07.351Z,99179.78
2022-07-26T07:09:10.386Z,99183.52
2022-07-26T07:10:15.223Z,99182.59
2022-07-26T07:11:18.614Z,99189.08
2022-07-26T07:12:22.849Z,99183.61
2022-07-26T07:13:26.052Z,99180.35
2022-07-26T07:14:28.857Z,99177.00
2022-07-26T07:15:31.435Z,99180.13
2022-07-26T07:16:34.266Z,99177.39
2022-07-26T07:17:37.198Z,99168.20
2022-07-26T07:18:39.879Z,99165.25
2022-07-26T07:19:42.562Z,99166.36
2022-07-26T07:20:45.343Z,99170.94
2022-07-26T07:21:50.149Z,99172.16
2022-07-26T07:22:53.023Z,99171.41
2022-07-26T07:23:55.820Z,99167.91
2022-07-26T07:24:58.584Z,99176.81
2022-07-26T07:26:01.259Z,99164.76
2022-07-26T07:27:04.318Z,99178.63
2022-07-26T07:29:27.577Z,99164.63
2022-07-26T07:30:32.640Z,99161.33
2022-07-26T07:31:48.333Z,99167.11
2022-07-26T07:32:39.895Z,99161.16
2022-07-26T07:33:52.468Z,99167.25
2022-07-26T07:34:48.172Z,99157.72
2022-07-26T07:35:51.392Z,99169.11
2022-07-26T07:36:54.717Z,99162.81
2022-07-26T07:37:57.384Z,99164.23
2022-07-26T07:39:04.427Z,99155.19
2022-07-26T07:40:06.289Z,99164.75
2022-07-26T07:41:09.129Z,99159.06
2022-07-26T07:42:11.815Z,99155.81
2022-07-26T07:43:16.373Z,99158.06
2022-07-26T07:44:19.091Z,99160.89
2022-07-26T07:45:21.885Z,99166.49
2022-07-26T07:46:26.829Z,99164.99
2022-07-26T07:47:34.455Z,99165.17
2022-07-26T07:48:39.368Z,99169.53
2022-07-26T07:49:42.594Z,99172.45
2022-07-26T07:50:45.686Z,99165.08
2022-07-26T07:51:48.567Z,99167.38
2022-07-26T07:52:51.268Z,99163.84
2022-07-26T07:53:57.296Z,99170.22
2022-07-26T07:55:17.750Z,99168.36
2022-07-26T07:56:04.339Z,99169.67
2022-07-26T07:57:07.012Z,99174.31
2022-07-26T07:58:09.706Z,99177.89
2022-07-26T07:59:13.539Z,99171.89
2022-07-26T08:00:18.718Z,99178.51
2022-07-26T08:01:21.919Z,99173.13
2022-07-26T08:02:24.756Z,99181.34
2022-07-26T08:03:38.098Z,99176.18
2022-07-26T08:04:32.061Z,99184.08
2022-07-26T08:06:50.281Z,99180.17
2022-07-26T08:07:50.180Z,99179.30
2022-07-26T08:08:54.678Z,99182.22
2022-07-26T08:09:57.455Z,99187.38
2022-07-26T08:11:00.555Z,99185.47
2022-07-26T08:12:03.919Z,99187.38
2022-07-26T08:13:08.224Z,99184.23
2022-07-26T08:14:12.963Z,99175.57
2022-07-26T08:15:15.826Z,99176.75
2022-07-26T08:16:20.953Z,99176.02
2022-07-26T08:17:23.784Z,99159.61
2022-07-26T08:18:28.390Z,99163.72
2022-07-26T08:19:41.941Z,99164.89
2022-07-26T08:20:36.213Z,99167.39
2022-07-26T08:21:39.917Z,99163.88
2022-07-26T08:22:42.737Z,99167.29
2022-07-26T08:23:45.423Z,99168.41
2022-07-26T08:24:48.110Z,99169.03
2022-07-26T08:25:57.026Z,99166.12
2022-07-26T08:26:55.473Z,99169.30
2022-07-26T08:28:03.663Z,99167.20
2022-07-26T08:29:02.891Z,99164.45
2022-07-26T08:30:06.684Z,99163.03
2022-07-26T08:31:09.500Z,99165.45
2022-07-26T08:32:12.478Z,99171.41
2022-07-26T08:33:15.281Z,99166.45
2022-07-26T08:34:18.694Z,99164.50
2022-07-26T08:35:21.491Z,99164.23
2022-07-26T08:36:31.905Z,99166.02
2022-07-26T08:38:40.952Z,99157.72
2022-07-26T08:39:44.190Z,99161.58
2022-07-26T08:40:46.986Z,99159.82
2022-07-26T08:41:49.778Z,99159.66
2022-07-26T08:42:54.257Z,99151.91
2022-07-26T08:44:05.351Z,99163.39
2022-07-26T08:45:09.035Z,99160.65
2022-07-26T08:46:13.278Z,99165.97
2022-07-26T08:47:18.191Z,99162.91
2022-07-26T08:48:22.891Z,99160.35
2022-07-26T08:49:25.631Z,99162.78
2022-07-26T08:50:29.397Z,99155.02
2022-07-26T08:51:32.261Z,99158.25
2022-07-26T08:52:35.065Z,99161.36
2022-07-26T08:54:50.172Z,99148.63
2022-07-26T08:56:06.984Z,99154.74
2022-07-26T08:57:01.475Z,99155.25
2022-07-26T08:58:04.406Z,99159.28
2022-07-26T08:59:20.189Z,99154.91
2022-07-26T09:00:28.112Z,99149.27
2022-07-26T09:01:31.331Z,99149.27
2022-07-26T09:02:40.643Z,99147.16
2022-07-26T09:04:54.931Z,99146.84
2022-07-26T09:05:59.555Z,99146.36
2022-07-26T09:07:08.925Z,99153.13
2022-07-26T09:08:25.897Z,99157.77
2022-07-26T09:09:29.091Z,99148.55
2022-07-26T09:10:39.037Z,99149.52
2022-07-26T09:11:40.456Z,99144.53
2022-07-26T09:12:43.765Z,99150.34
2022-07-26T09:15:10.442Z,99149.22
2022-07-26T09:16:14.178Z,99148.40
2022-07-26T09:17:18.783Z,99147.41
2022-07-26T09:19:38.148Z,99135.69
2022-07-26T09:20:41.173Z,99140.52
2022-07-26T09:21:45.017Z,99134.42
2022-07-26T09:23:02.414Z,99140.37
2022-07-26T09:24:06.063Z,99127.97
2022-07-26T09:26:31.835Z,99128.76
2022-07-26T09:27:34.941Z,99133.63
2022-07-26T09:28:37.525Z,99135.87
2022-07-26T09:29:43.726Z,99127.81
2022-07-26T09:32:15.348Z,99125.23
2022-07-26T09:33:19.737Z,99122.48
2022-07-26T09:34:25.526Z,99126.85
2022-07-26T09:35:50.982Z,99126.02
2022-07-26T09:38:03.017Z,99129.39
2022-07-26T09:39:06.068Z,99129.42
2022-07-26T09:40:13.882Z,99127.00
2022-07-26T09:41:24.849Z,99132.16
2022-07-26T09:42:29.479Z,99127.14
2022-07-26T09:43:38.399Z,99127.65
2022-07-26T09:44:48.102Z,99135.56
2022-07-26T09:45:45.610Z,99127.33
2022-07-26T09:46:56.405Z,99131.19
2022-07-26T09:47:59.298Z,99126.50
2022-07-26T09:49:18.438Z,99122.63
2022-07-26T09:50:28.234Z,99130.55
2022-07-26T09:51:37.312Z,99127.62
2022-07-26T09:52:40.244Z,99126.64
2022-07-26T09:53:46.745Z,99128.91
2022-07-26T09:54:49.480Z,99123.75
2022-07-26T09:55:54.946Z,99120.52
2022-07-26T09:56:57.856Z,99116.00
2022-07-26T09:58:00.644Z,99117.59
2022-07-26T09:59:03.314Z,99124.84
2022-07-26T10:01:18.519Z,99109.31
2022-07-26T10:02:22.795Z,99115.48
2022-07-26T10:03:25.561Z,99114.84
2022-07-26T10:04:28.252Z,99120.34
2022-07-26T10:05:32.243Z,99113.39
2022-07-26T10:06:35.349Z,99118.74
2022-07-26T10:07:38.031Z,99125.55
2022-07-26T10:08:41.476Z,99125.84
2022-07-26T10:11:03.993Z,99122.59
2022-07-26T10:12:07.735Z,99128.27
2022-07-26T10:13:10.324Z,99126.03
2022-07-26T10:15:50.535Z,99127.30
2022-07-26T10:16:53.606Z,99123.42
2022-07-26T10:17:56.625Z,99123.61
2022-07-26T10:18:59.304Z,99119.06
2022-07-26T10:20:15.147Z,99123.11
2022-07-26T10:21:18.586Z,99123.75
2022-07-26T10:22:32.707Z,99118.72
2022-07-26T10:23:43.022Z,99121.48
2022-07-26T10:24:45.719Z,99121.95
2022-07-26T10:25:48.411Z,99111.23
2022-07-26T10:26:53.073Z,99115.12
2022-07-26T10:27:56.453Z,99117.67
2022-07-26T10:29:20.291Z,99119.44
2022-07-26T10:30:33.544Z,99121.52
2022-07-26T10:31:32.486Z,99109.67
2022-07-26T10:32:35.263Z,99112.09
2022-07-26T10:33:41.332Z,99110.17
2022-07-26T10:34:44.050Z,99113.85
2022-07-26T10:35:46.747Z,99110.94
2022-07-26T10:36:57.538Z,99111.07
2022-07-26T10:39:13.509Z,99101.11
2022-07-26T10:40:18.812Z,99097.87
2022-07-26T10:41:36.630Z,99109.31
2022-07-26T10:42:44.722Z,99102.98
2022-07-26T10:44:14.022Z,99105.94
2022-07-26T10:46:30.446Z,99108.20
2022-07-26T10:47:35.400Z,99106.86
2022-07-26T10:48:58.327Z,99112.06
2022-07-26T10:50:01.179Z,99118.39
2022-07-26T10:51:06.358Z,99116.00
2022-07-26T10:52:20.039Z,99117.32
2022-07-26T10:55:03.009Z,99119.30
2022-07-26T10:56:06.084Z,99122.55
2022-07-26T10:57:08.858Z,99112.88
2022-07-26T10:58:11.527Z,99114.36
2022-07-26T10:59:20.281Z,99114.03
2022-07-26T11:00:24.534Z,99117.72
2022-07-26T11:01:41.483Z,99111.73
2022-07-26T11:02:58.719Z,99109.77
2022-07-26T11:04:01.648Z,99104.24
2022-07-26T11:05:10.851Z,99105.67
2022-07-26T11:06:17.277Z,99102.73
2022-07-26T11:07:19.889Z,99095.11
2022-07-26T11:08:26.339Z,99097.66
2022-07-26T11:09:34.058Z,99095.07
2022-07-26T11:10:45.626Z,99090.53
2022-07-26T11:11:48.226Z,99096.32
2022-07-26T11:14:18.531Z,99096.30
2022-07-26T11:15:22.340Z,99096.36
2022-07-26T11:16:26.943Z,99106.56
2022-07-26T11:17:30.034Z,99094.40
2022-07-26T11:18:36.910Z,99102.19
2022-07-26T11:19:39.620Z,99105.73
2022-07-26T11:20:45.828Z,99096.87
2022-07-26T11:21:58.395Z,99094.32
2022-07-26T11:23:01.193Z,99101.16
2022-07-26T11:24:04.455Z,99100.53
2022-07-26T11:25:08.192Z,99108.19
2022-07-26T11:26:17.816Z,99102.49
2022-07-26T11:27:20.475Z,99096.20
2022-07-26T11:28:23.301Z,99098.32
2022-07-26T11:29:38.299Z,99112.27
2022-07-26T11:30:33.103Z,99106.93
2022-07-26T11:31:55.576Z,99104.05
2022-07-26T11:32:52.786Z,99100.84
2022-07-26T11:33:55.590Z,99099.67
2022-07-26T11:34:59.371Z,99100.50
2022-07-26T11:36:02.669Z,99094.67
2022-07-26T11:37:05.369Z,99098.36
2022-07-26T11:38:12.101Z,99091.53
2022-07-26T11:39:21.354Z,99089.74
2022-07-26T11:40:46.265Z,99091.16
2022-07-26T11:41:49.252Z,99093.11
2022-07-26T11:42:54.672Z,99087.53
2022-07-26T11:44:02.090Z,99092.98
2022-07-26T11:45:02.553Z,99091.31
2022-07-26T11:46:05.816Z,99091.14
2022-07-26T11:47:12.443Z,99090.47
2022-07-26T11:48:15.035Z,99089.92
2022-07-26T11:50:32.102Z,99078.98
2022-07-26T11:51:34.816Z,99088.92
2022-07-26T11:52:37.585Z,99089.04
2022-07-26T11:53:40.256Z,99083.53
2022-07-26T11:54:47.795Z,99085.95
2022-07-26T11:55:50.507Z,99083.69
2022-07-26T11:56:55.488Z,99071.86
2022-07-26T11:59:25.803Z,99076.80
2022-07-26T12:00:28.714Z,99073.94
2022-07-26T12:01:31.598Z,99080.94
2022-07-26T12:02:34.332Z,99077.23
2022-07-26T12:03:38.007Z,99075.50
2022-07-26T12:04:42.127Z,99081.67
2022-07-26T12:05:48.761Z,99087.51
2022-07-26T12:06:52.541Z,99075.77
2022-07-26T12:07:59.800Z,99073.23
2022-07-26T12:09:02.523Z,99078.28
2022-07-26T12:10:06.418Z,99082.86
2022-07-26T12:11:09.805Z,99082.70
2022-07-26T12:12:24.879Z,99080.49
2022-07-26T12:13:27.699Z,99079.53
2022-07-26T12:14:33.908Z,99083.12
2022-07-26T12:16:56.595Z,99079.91
2022-07-26T12:17:59.731Z,99084.95
2022-07-26T12:19:03.725Z,99087.69
2022-07-26T12:20:15.294Z,99090.31
2022-07-26T12:21:19.885Z,99082.73
2022-07-26T12:22:23.083Z,99084.70
2022-07-26T12:23:26.266Z,99088.58
2022-07-26T12:27:32.295Z,99071.03
2022-07-26T12:28:41.729Z,99074.28
2022-07-26T12:29:45.431Z,99068.95
2022-07-26T12:30:48.917Z,99071.96
2022-07-26T12:32:12.570Z,99073.75
2022-07-26T12:33:14.596Z,99066.61
2022-07-26T12:34:20.663Z,99073.99
2022-07-26T12:35:33.084Z,99068.63
2022-07-26T12:36:36.181Z,99064.53
2022-07-26T12:37:48.842Z,99059.19
2022-07-26T12:38:51.825Z,99060.60
2022-07-26T12:41:13.881Z,99059.45
2022-07-26T12:42:33.056Z,99065.16
2022-07-26T12:43:41.260Z,99061.74
2022-07-26T12:44:43.968Z,99069.45
2022-07-26T12:46:57.338Z,99055.80
2022-07-26T12:48:01.242Z,99062.35
2022-07-26T12:49:04.205Z,99064.28
2022-07-26T12:50:08.595Z,99067.86
2022-07-26T12:51:11.374Z,99067.03
2022-07-26T12:52:15.079Z,99065.10
2022-07-26T12:53:17.661Z,99063.94
2022-07-26T12:54:20.747Z,99068.65
2022-07-26T12:55:23.314Z,99068.98
2022-07-26T12:56:27.819Z,99064.61
2022-07-26T12:57:30.480Z,99067.36
2022-07-26T12:58:33.060Z,99071.73
2022-07-26T12:59:38.533Z,99068.65
2022-07-26T13:00:40.527Z,99066.36
2022-07-26T13:01:43.258Z,99070.94
2022-07-26T13:02:46.116Z,99065.96
2022-07-26T13:03:48.945Z,99065.84
2022-07-26T13:04:54.330Z,99061.67
2022-07-26T13:05:56.367Z,99068.64
2022-07-26T13:06:59.430Z,99069.47
2022-07-26T13:08:02.274Z,99074.14
2022-07-26T13:10:33.067Z,99060.33
2022-07-26T13:11:20.347Z,99063.14
2022-07-26T13:12:23.058Z,99060.39
2022-07-26T13:13:25.733Z,99055.23
2022-07-26T13:14:28.335Z,99058.31
2022-07-26T13:15:37.180Z,99059.14
2022-07-26T13:16:36.765Z,99055.23
2022-07-26T13:17:39.586Z,99060.39
2022-07-26T13:18:42.262Z,99056.05
2022-07-26T13:19:44.955Z,99051.34